Terminal Aerodrome Forecast
Issued by NWS

Home | Current Version | Previous Version | Text Only | Print | Product List | Glossary On
Versions: 1 2 3 4 5 6 7 8 9 10 11 12 13 14 15 16 17 18
000
FTUS44 KBMX 231139
TAFMGM
TAF
KMGM 231139Z 2312/2412 00000KT P6SM OVC016
     FM231500 09005KT P6SM BKN020
     FM231800 12005KT P6SM SCT025
     FM240700 11003KT P6SM SCT020=

USA.gov is the U.S. government's official web portal to all federal, state and local government web resources and services.